Time;durP1;ratioP1;P1;durP2;ratioP2;P2;SDS_P1;SDS_P2;PMS_P1;PMS_P2;Temp;Humidity;BMP_temperature;BMP_pressure;BME280_temperature;BME280_humidity;BME280_pressure;Samples;Min_cycle;Max_cycle;Signal;HPM_P1;HPM_P2
2022/12/05 00:01:26;;;;;;;;;;;5.90;69.80;;;0.90;100.00;95355.31;4995091;28;19913;-46
2022/12/05 00:03:55;;;;;;;;;;;5.90;69.80;;;0.97;100.00;95352.66;4995244;28;20004;-47
2022/12/05 00:06:24;;;;;;;;;;;5.90;69.80;;;1.01;100.00;95351.25;5006007;28;19916;-51
2022/12/05 00:08:53;;;;;;;;;;;6.00;70.00;;;1.03;100.00;95354.44;4991416;28;19917;-48
2022/12/05 00:11:25;;;;;;;;;;;6.00;70.00;;;1.09;100.00;95361.47;4995807;28;20019;-46
2022/12/05 00:13:53;;;;;;;;;;;6.00;70.00;;;1.10;100.00;95354.44;4996066;28;19909;-52
2022/12/05 00:16:22;;;;;;;;;;;6.10;70.00;;;1.11;100.00;95362.06;5013504;28;20287;-49
2022/12/05 00:18:48;;;;;;;;;;;6.10;70.00;;;1.15;100.00;95359.84;5013558;28;19913;-45
2022/12/05 00:21:25;;;;;;;;;;;6.10;70.00;;;1.18;100.00;95364.66;4988280;28;19936;-52
2022/12/05 00:23:53;;;;;;;;;;;6.10;70.00;;;1.22;100.00;95380.78;4996176;28;20298;-47
2022/12/05 00:26:23;;;;;;;;;;;6.20;70.00;;;1.21;100.00;95385.22;5001244;28;19916;-48
2022/12/05 00:28:50;;;;;;;;;;;6.20;70.00;;;1.22;100.00;95372.91;5001081;28;19913;-51
2022/12/05 00:31:21;;;;;;;;;;;6.20;69.90;;;1.21;100.00;95385.22;4994531;28;20302;-47
2022/12/05 00:33:48;;;;;;;;;;;6.20;69.90;;;1.20;100.00;95378.38;4989646;28;20370;-51
2022/12/05 00:36:25;;;;;;;;;;;6.20;69.90;;;1.19;100.00;95384.63;4960504;28;19996;-47
2022/12/05 00:38:53;;;;;;;;;;;6.20;69.80;;;1.21;100.00;95381.81;4977497;28;20334;-51
2022/12/05 00:41:23;;;;;;;;;;;6.30;69.80;;;1.22;100.00;95384.19;4995221;28;19991;-50
2022/12/05 00:43:53;;;;;;;;;;;6.30;69.80;;;1.20;100.00;95401.19;4995060;28;19928;-51
2022/12/05 00:46:24;;;;;;;;;;;6.20;69.80;;;1.23;100.00;95411.28;4995691;28;20296;-52
2022/12/05 00:48:53;;;;;;;;;;;6.20;69.90;;;1.24;100.00;95411.06;4995643;28;19909;-46
2022/12/05 00:51:27;;;;;;;;;;;6.20;70.70;;;1.21;100.00;95416.72;4992751;28;20016;-48
2022/12/05 00:53:57;;;;;;;;;;;6.20;70.00;;;1.23;100.00;95421.78;5007862;28;19937;-46
2022/12/05 00:56:28;;;;;;;;;;;6.20;70.00;;;1.23;100.00;95422.56;5004875;28;19913;-46
2022/12/05 00:59:02;;;;;;;;;;;6.20;70.90;;;1.31;100.00;95427.56;4995261;28;20303;-49
2022/12/05 01:01:38;;;;;;;;;;;6.20;70.10;;;1.34;100.00;95431.59;4991407;28;19915;-50
2022/12/05 01:04:14;;;;;;;;;;;6.20;70.20;;;1.36;100.00;95416.44;4979228;28;20362;-54
2022/12/05 01:06:42;;;;;;;;;;;6.20;70.30;;;1.38;100.00;95414.41;4995080;28;19959;-49
2022/12/05 01:09:15;;;;;;;;;;;6.20;70.30;;;1.38;100.00;95412.59;4991296;28;19971;-47
2022/12/05 01:11:44;;;;;;;;;;;6.30;70.30;;;1.40;100.00;95407.13;4991255;28;19909;-49
2022/12/05 01:14:13;;;;;;;;;;;6.30;70.30;;;1.43;100.00;95403.28;4975082;28;20369;-52
2022/12/05 01:16:42;;;;;;;;;;;6.30;70.20;;;1.45;100.00;95406.50;4994015;28;19909;-50
2022/12/05 01:19:21;;;;;;;;;;;6.30;70.20;;;1.48;100.00;95406.88;5011826;28;19940;-49
2022/12/05 01:21:47;;;;;;;;;;;6.40;70.30;;;1.48;100.00;95412.13;4994139;28;19909;-53
2022/12/05 01:24:18;;;;;;;;;;;6.40;70.20;;;1.48;100.00;95404.25;4980502;28;19913;-47
2022/12/05 01:26:46;;;;;;;;;;;6.40;70.20;;;1.48;100.00;95409.50;4968906;28;19960;-47
2022/12/05 01:29:16;;;;;;;;;;;6.40;70.20;;;1.53;100.00;95411.47;4975108;28;19956;-49
2022/12/05 01:31:46;;;;;;;;;;;6.50;70.30;;;1.51;100.00;95410.91;4974520;28;19964;-47
2022/12/05 01:34:16;;;;;;;;;;;6.50;70.20;;;1.54;100.00;95427.03;5010208;28;20355;-47
2022/12/05 01:36:43;;;;;;;;;;;6.50;70.20;;;1.55;100.00;95451.47;5012305;28;20410;-49
2022/12/05 01:39:11;;;;;;;;;;;6.50;70.20;;;1.53;100.00;95445.63;4990601;28;19909;-47
2022/12/05 01:41:43;;;;;;;;;;;6.50;70.20;;;1.54;100.00;95452.50;5009842;28;19920;-48
2022/12/05 01:44:11;;;;;;;;;;;6.50;70.20;;;1.52;100.00;95446.63;5011244;28;19921;-50
2022/12/05 01:46:47;;;;;;;;;;;6.50;70.20;;;1.54;100.00;95455.91;5010572;28;19909;-49
2022/12/05 01:49:38;;;;;;;;;;;6.50;70.20;;;1.61;100.00;95437.50;5010041;28;19913;-50
2022/12/05 01:52:20;;;;;;;;;;;6.60;70.30;;;1.51;100.00;95445.03;4994383;28;19909;-51
2022/12/05 01:54:55;;;;;;;;;;;6.60;70.30;;;1.59;100.00;95453.44;4994706;28;20390;-53
2022/12/05 01:57:24;;;;;;;;;;;6.60;70.20;;;1.64;100.00;95446.78;5011110;28;19960;-55
2022/12/05 01:59:57;;;;;;;;;;;6.60;70.20;;;1.67;100.00;95448.97;4994193;28;19916;-50
2022/12/05 02:02:23;;;;;;;;;;;6.60;70.20;;;1.61;100.00;95451.44;4989833;28;20257;-51
2022/12/05 02:05:16;;;;;;;;;;;6.60;70.20;;;1.62;100.00;95439.91;4974458;28;19920;-54
2022/12/05 02:07:44;;;;;;;;;;;6.60;70.10;;;1.67;100.00;95441.91;4976170;28;20410;-55
2022/12/05 02:10:10;;;;;;;;;;;6.60;70.20;;;1.69;100.00;95444.31;4997308;28;20287;-50
2022/12/05 02:12:37;;;;;;;;;;;6.60;70.50;;;1.66;100.00;95429.81;4993414;28;19956;-52
2022/12/05 02:15:24;;;;;;;;;;;6.60;70.20;;;1.72;100.00;95431.56;4993354;28;20016;-52
2022/12/05 02:18:11;;;;;;;;;;;6.70;70.30;;;1.73;100.00;95435.00;5011920;28;20003;-52
2022/12/05 02:21:00;;;;;;;;;;;6.70;70.30;;;1.72;100.00;95436.00;4998145;28;19999;-52
2022/12/05 02:23:48;;;;;;;;;;;6.70;70.30;;;1.69;100.00;95429.34;4983161;28;19948;-52
2022/12/05 02:26:35;;;;;;;;;;;6.70;70.30;;;1.65;100.00;95436.06;5009034;28;19908;-52
2022/12/05 02:29:32;;;;;;;;;;;6.70;70.30;;;1.70;100.00;95441.47;5011465;28;20386;-50
2022/12/05 02:32:11;;;;;;;;;;;6.70;70.30;;;1.76;100.00;95442.47;5009937;28;20379;-54
2022/12/05 02:35:22;;;;;;;;;;;6.70;70.40;;;1.73;100.00;95441.06;4999077;28;19916;-49
2022/12/05 02:38:21;;;;;;;;;;;6.70;70.40;;;1.77;100.00;95430.94;4997253;28;20367;-52
2022/12/05 02:41:14;;;;;;;;;;;6.70;70.40;;;1.79;100.00;95448.09;5009167;28;19949;-52
2022/12/05 02:44:03;;;;;;;;;;;6.70;70.40;;;1.78;100.00;95446.47;5010220;28;19920;-51
2022/12/05 02:46:40;;;;;;;;;;;6.70;70.50;;;1.79;100.00;95452.53;5010031;28;19920;-52
2022/12/05 02:49:21;;;;;;;;;;;6.70;70.50;;;1.79;100.00;95447.28;4992523;28;19920;-50
2022/12/05 02:51:58;;;;;;;;;;;6.70;70.50;;;1.82;100.00;95454.75;4978378;28;19913;-52
2022/12/05 02:54:34;;;;;;;;;;;6.70;71.20;;;1.82;100.00;95445.03;4974146;28;20312;-52
2022/12/05 02:57:00;;;;;;;;;;;6.70;70.40;;;1.84;100.00;95453.50;4973200;28;19913;-49
2022/12/05 02:59:27;;;;;;;;;;;6.70;70.40;;;1.88;100.00;95443.38;4977303;28;19909;-52
2022/12/05 03:01:53;;;;;;;;;;;6.70;71.20;;;1.90;100.00;95448.41;4991685;28;19916;-54
2022/12/05 03:04:24;;;;;;;;;;;6.80;70.50;;;1.89;100.00;95455.50;5010747;28;19917;-51
2022/12/05 03:07:10;;;;;;;;;;;6.80;70.40;;;1.91;100.00;95450.00;4992791;28;19959;-52
2022/12/05 03:10:01;;;;;;;;;;;6.80;70.40;;;1.90;100.00;95441.34;4989953;28;19909;-51
2022/12/05 03:12:41;;;;;;;;;;;6.80;70.40;;;1.91;100.00;95435.06;4973219;28;20004;-49
2022/12/05 03:15:37;;;;;;;;;;;6.80;70.30;;;1.90;100.00;95430.03;4968056;28;19909;-52
2022/12/05 03:18:24;;;;;;;;;;;6.80;70.40;;;1.91;100.00;95431.63;4974843;28;19948;-49
2022/12/05 03:21:23;;;;;;;;;;;6.90;70.30;;;1.93;100.00;95442.72;4988667;28;19920;-55
2022/12/05 03:24:02;;;;;;;;;;;6.90;70.30;;;1.91;100.00;95437.69;4993402;28;19917;-53
2022/12/05 03:26:59;;;;;;;;;;;6.90;70.30;;;1.92;100.00;95439.31;4992472;28;19909;-50
2022/12/05 03:29:48;;;;;;;;;;;6.90;70.20;;;1.88;100.00;95427.63;5009236;28;19995;-51
2022/12/05 03:33:14;;;;;;;;;;;6.90;70.20;;;1.90;100.00;95427.41;4993483;28;19917;-49
2022/12/05 03:36:10;;;;;;;;;;;6.90;70.20;;;1.86;100.00;95432.28;4988162;28;19982;-49
2022/12/05 03:39:04;;;;;;;;;;;6.90;70.30;;;1.88;100.00;95427.63;4980237;28;19935;-53
2022/12/05 03:41:35;;;;;;;;;;;6.90;70.30;;;1.88;100.00;95432.06;4977217;28;19909;-51
2022/12/05 03:44:41;;;;;;;;;;;6.80;70.20;;;1.88;100.00;95430.25;5004201;28;19914;-54
2022/12/05 03:47:29;;;;;;;;;;;6.80;70.20;;;1.90;100.00;95432.66;4990858;28;19910;-49
2022/12/05 03:50:06;;;;;;;;;;;6.80;70.30;;;1.89;100.00;95439.72;4979929;28;19916;-50
2022/12/05 03:52:45;;;;;;;;;;;6.80;70.30;;;1.90;100.00;95446.59;4974047;28;19917;-51
2022/12/05 03:55:16;;;;;;;;;;;6.90;70.40;;;1.89;100.00;95452.06;4974765;28;19932;-50
2022/12/05 03:57:58;;;;;;;;;;;6.90;70.30;;;1.94;100.00;95452.22;4992964;28;19913;-49
2022/12/05 04:00:29;;;;;;;;;;;6.90;70.40;;;1.96;100.00;95452.81;4991952;28;19916;-52
2022/12/05 04:03:25;;;;;;;;;;;6.90;70.40;;;1.96;100.00;95448.38;5001934;28;20295;-49
2022/12/05 04:06:03;;;;;;;;;;;6.90;70.30;;;1.97;100.00;95455.22;4991324;28;19916;-52
2022/12/05 04:08:41;;;;;;;;;;;6.90;70.40;;;1.98;100.00;95458.66;4971699;28;19916;-51
2022/12/05 04:11:20;;;;;;;;;;;6.90;70.30;;;2.02;100.00;95462.47;4974167;28;19935;-50
2022/12/05 04:13:53;;;;;;;;;;;6.90;70.40;;;2.02;100.00;95470.34;4994283;28;20003;-50
2022/12/05 04:22:50;;;;;;;;;;;7.00;70.40;;;2.04;100.00;95482.28;5001937;28;20326;-50
2022/12/05 04:25:33;;;;;;;;;;;7.00;70.40;;;2.08;100.00;95477.38;4961217;28;19917;-50
2022/12/05 04:28:39;;;;;;;;;;;7.00;70.50;;;2.14;100.00;95481.00;4995179;28;20358;-50
2022/12/05 04:31:15;;;;;;;;;;;7.00;70.50;;;2.11;100.00;95481.41;4997136;28;19910;-52
2022/12/05 04:33:59;;;;;;;;;;;7.00;70.50;;;2.11;100.00;95495.34;4990868;28;20337;-48
2022/12/05 04:36:50;;;;;;;;;;;7.00;70.40;;;2.18;100.00;95492.69;5009323;28;20306;-46
2022/12/05 04:39:47;;;;;;;;;;;7.10;70.50;;;2.20;100.00;95494.06;5010641;28;20003;-48
2022/12/05 04:42:25;;;;;;;;;;;7.10;70.50;;;2.21;100.00;95494.88;5004243;28;20273;-52
2022/12/05 04:45:05;;;;;;;;;;;7.10;70.40;;;2.18;100.00;95496.09;5010231;28;19913;-50
2022/12/05 04:47:41;;;;;;;;;;;7.10;70.40;;;2.20;100.00;95495.91;4998170;28;19917;-48
2022/12/05 04:50:12;;;;;;;;;;;7.10;70.30;;;2.21;100.00;95506.19;5001710;28;19909;-51
2022/12/05 04:52:40;;;;;;;;;;;7.10;70.40;;;2.21;100.00;95518.53;4978277;28;20361;-49
2022/12/05 04:55:19;;;;;;;;;;;7.20;70.40;;;2.23;100.00;95524.38;4991475;28;19951;-48
2022/12/05 04:58:06;;;;;;;;;;;7.20;70.30;;;2.22;100.00;95520.94;4994089;28;19917;-46
2022/12/05 05:00:56;;;;;;;;;;;7.20;70.30;;;2.22;100.00;95518.31;4999194;28;20004;-51
2022/12/05 05:03:31;;;;;;;;;;;7.20;70.30;;;2.24;100.00;95516.28;5009723;28;19913;-46
2022/12/05 05:05:57;;;;;;;;;;;7.20;70.30;;;2.27;100.00;95521.09;4999181;28;19937;-46
2022/12/05 05:08:28;;;;;;;;;;;7.20;70.30;;;2.28;100.00;95519.28;4968418;28;19909;-47
2022/12/05 05:11:13;;;;;;;;;;;7.20;70.30;;;2.34;100.00;95528.13;4980919;28;20000;-47
2022/12/05 05:13:45;;;;;;;;;;;7.20;70.40;;;2.34;100.00;95526.31;4989248;28;20341;-51
2022/12/05 05:16:41;;;;;;;;;;;7.20;70.40;;;2.38;100.00;95538.00;4977248;28;19909;-48
2022/12/05 05:19:10;;;;;;;;;;;7.20;70.50;;;2.40;100.00;95533.34;4992215;28;19919;-48
2022/12/05 05:21:39;;;;;;;;;;;7.30;70.50;;;2.45;100.00;95532.72;4977718;28;20071;-48
2022/12/05 05:24:08;;;;;;;;;;;7.20;70.40;;;2.43;100.00;95527.66;5011418;28;20350;-52
2022/12/05 05:26:41;;;;;;;;;;;7.30;70.50;;;2.43;100.00;95540.81;4993611;28;19917;-50
2022/12/05 05:29:11;;;;;;;;;;;7.30;70.40;;;2.42;100.00;95543.66;4994265;28;19996;-47
2022/12/05 05:31:38;;;;;;;;;;;7.30;70.40;;;2.42;100.00;95556.81;4989537;28;19924;-47
2022/12/05 05:34:07;;;;;;;;;;;7.30;70.30;;;2.44;100.00;95554.75;4969187;28;19910;-45
2022/12/05 05:36:34;;;;;;;;;;;7.40;70.40;;;2.41;100.00;95549.91;4979882;28;19909;-47
2022/12/05 05:39:13;;;;;;;;;;;7.40;70.30;;;2.35;100.00;95548.97;4989710;28;19976;-47
2022/12/05 05:41:41;;;;;;;;;;;7.30;70.20;;;2.40;100.00;95549.13;4986353;28;20300;-50
2022/12/05 05:44:07;;;;;;;;;;;7.30;70.30;;;2.39;100.00;95537.00;4982095;28;19914;-46
2022/12/05 05:46:34;;;;;;;;;;;7.30;70.30;;;2.42;100.00;95546.28;4977165;28;19921;-48
2022/12/05 05:49:01;;;;;;;;;;;7.40;70.40;;;2.37;100.00;95536.41;4960627;28;20335;-58
2022/12/05 05:51:35;;;;;;;;;;;7.40;70.40;;;2.41;100.00;95536.78;4973065;28;20368;-46
2022/12/05 05:54:04;;;;;;;;;;;7.40;70.30;;;2.44;100.00;95542.41;4979249;28;20004;-46
2022/12/05 05:56:30;;;;;;;;;;;7.30;70.30;;;2.42;100.00;95541.84;4985552;28;19913;-47
2022/12/05 05:59:02;;;;;;;;;;;7.40;70.40;;;2.43;100.00;95545.25;4985051;28;20523;-46
2022/12/05 06:01:32;;;;;;;;;;;7.30;70.30;;;2.44;100.00;95549.50;4983703;28;19914;-46
2022/12/05 06:03:57;;;;;;;;;;;7.30;70.30;;;2.43;100.00;95553.16;4985227;28;19920;-47
2022/12/05 06:06:24;;;;;;;;;;;7.30;70.30;;;2.44;100.00;95557.38;4962509;28;19910;-46
2022/12/05 06:08:50;;;;;;;;;;;7.30;70.40;;;2.39;100.00;95551.97;4989453;28;20005;-46
2022/12/05 06:11:21;;;;;;;;;;;7.30;70.30;;;2.41;100.00;95550.72;4989463;28;19960;-46
2022/12/05 06:13:47;;;;;;;;;;;7.30;70.40;;;2.44;100.00;95558.19;4988647;28;19914;-49
2022/12/05 06:16:16;;;;;;;;;;;7.30;70.40;;;2.45;100.00;95554.56;4989912;28;20023;-46
2022/12/05 06:18:48;;;;;;;;;;;7.30;70.50;;;2.48;100.00;95564.63;5005557;28;19963;-48
2022/12/05 06:21:20;;;;;;;;;;;7.30;70.60;;;2.52;100.00;95554.50;4988341;28;19916;-46
2022/12/05 06:23:50;;;;;;;;;;;7.40;70.60;;;2.55;100.00;95556.69;4987492;28;19920;-46
2022/12/05 06:26:21;;;;;;;;;;;7.40;70.60;;;2.61;100.00;95555.03;4978423;28;19918;-46
2022/12/05 06:28:47;;;;;;;;;;;7.40;70.60;;;2.54;100.00;95561.16;5004638;28;20380;-49
2022/12/05 06:31:25;;;;;;;;;;;7.40;70.60;;;2.55;100.00;95557.50;4963105;28;20084;-47
2022/12/05 06:33:51;;;;;;;;;;;7.50;70.60;;;2.57;100.00;95548.56;5009702;28;19917;-46
2022/12/05 06:36:20;;;;;;;;;;;7.50;70.60;;;2.57;100.00;95557.31;5006701;28;19909;-46
2022/12/05 06:38:49;;;;;;;;;;;7.50;70.60;;;2.59;100.00;95562.31;5003217;28;19909;-52
2022/12/05 06:41:19;;;;;;;;;;;7.50;70.60;;;2.61;100.00;95563.72;4917276;28;22912;-50
2022/12/05 06:43:48;;;;;;;;;;;7.50;70.60;;;2.62;100.00;95570.59;4997685;28;20616;-50
2022/12/05 06:46:15;;;;;;;;;;;7.50;70.60;;;2.63;100.00;95568.75;4989425;28;19909;-51
2022/12/05 06:48:41;;;;;;;;;;;7.50;70.60;;;2.60;100.00;95577.06;4999529;28;20376;-51
2022/12/05 06:51:11;;;;;;;;;;;7.50;70.60;;;2.64;100.00;95578.28;5005029;28;19919;-50
2022/12/05 06:53:37;;;;;;;;;;;7.50;70.60;;;2.64;100.00;95560.66;4999230;28;19921;-48
2022/12/05 06:56:18;;;;;;;;;;;7.50;70.60;;;2.63;100.00;95559.03;4963281;28;20281;-48
2022/12/05 06:58:52;;;;;;;;;;;7.50;70.60;;;2.66;100.00;95563.06;5001525;28;19989;-51
2022/12/05 07:04:30;;;;;;;;;;;7.50;70.60;;;2.64;100.00;95557.25;4993746;28;19924;-49
2022/12/05 07:07:01;;;;;;;;;;;7.50;70.60;;;2.69;100.00;95565.28;4990310;28;19913;-49
2022/12/05 07:12:17;;;;;;;;;;;7.60;70.70;;;2.70;100.00;95587.94;4954893;28;20291;-48
2022/12/05 07:14:49;;;;;;;;;;;7.60;70.70;;;2.70;100.00;95598.47;4991657;28;20004;-50
2022/12/05 07:17:20;;;;;;;;;;;7.50;70.60;;;2.69;100.00;95599.47;5009864;28;19920;-50
2022/12/05 07:19:48;;;;;;;;;;;7.60;70.60;;;2.68;100.00;95613.66;4975711;28;19935;-53
2022/12/05 07:22:15;;;;;;;;;;;7.60;70.60;;;2.68;100.00;95613.66;5009143;28;20003;-50
2022/12/05 07:24:41;;;;;;;;;;;7.60;70.50;;;2.70;100.00;95604.53;4992206;28;19921;-50
2022/12/05 07:27:06;;;;;;;;;;;7.60;70.50;;;2.73;100.00;95611.19;5008208;28;19959;-49
2022/12/05 07:29:35;;;;;;;;;;;7.70;70.60;;;2.74;100.00;95613.59;5009617;28;19916;-48
2022/12/05 07:32:01;;;;;;;;;;;7.70;70.50;;;2.75;100.00;95628.34;5000325;28;20404;-51
2022/12/05 07:34:29;;;;;;;;;;;7.70;70.50;;;2.79;100.00;95639.28;4987420;28;19956;-49
2022/12/05 07:36:55;;;;;;;;;;;7.70;70.50;;;2.82;100.00;95625.69;4989408;28;19918;-48
2022/12/05 07:39:21;;;;;;;;;;;7.70;70.50;;;2.81;100.00;95634.59;4978808;28;20327;-49
2022/12/05 07:41:47;;;;;;;;;;;7.70;70.40;;;2.84;100.00;95630.72;4987441;28;20268;-48
2022/12/05 07:44:12;;;;;;;;;;;7.70;70.40;;;2.84;100.00;95630.72;4985183;28;20283;-53
2022/12/05 07:46:41;;;;;;;;;;;7.70;70.40;;;2.86;100.00;95623.44;4988917;28;19917;-57
2022/12/05 07:49:07;;;;;;;;;;;7.80;70.40;;;2.86;100.00;95626.88;4992684;28;20070;-56
2022/12/05 07:51:40;;;;;;;;;;;7.80;70.30;;;2.81;100.00;95629.31;4993141;28;19914;-56
2022/12/05 07:54:08;;;;;;;;;;;7.80;70.20;;;2.84;100.00;95639.41;4976349;28;19914;-57
2022/12/05 07:56:41;;;;;;;;;;;7.80;70.20;;;2.86;100.00;95644.47;4991757;28;19917;-54
2022/12/05 07:59:10;;;;;;;;;;;7.90;70.20;;;2.88;100.00;95655.56;4993858;28;20358;-55
2022/12/05 08:01:36;;;;;;;;;;;7.80;70.10;;;2.89;100.00;95654.56;4991402;28;20284;-57
2022/12/05 08:04:01;;;;;;;;;;;7.90;70.20;;;2.91;100.00;95669.09;4995670;28;19921;-51
2022/12/05 08:06:33;;;;;;;;;;;7.90;70.20;;;2.92;100.00;95660.22;4993659;28;19968;-57
2022/12/05 08:09:05;;;;;;;;;;;7.90;70.10;;;2.95;100.00;95659.00;4991201;28;19932;-56
2022/12/05 08:11:35;;;;;;;;;;;8.00;70.10;;;2.96;100.00;95660.59;4993122;28;19963;-57
2022/12/05 08:14:04;;;;;;;;;;;8.00;70.10;;;2.97;100.00;95662.19;4987380;28;20000;-53
2022/12/05 08:16:31;;;;;;;;;;;8.00;70.00;;;2.98;100.00;95656.72;4972733;28;19909;-52
2022/12/05 08:19:05;;;;;;;;;;;8.00;70.00;;;3.03;100.00;95663.16;4973722;28;20263;-56
2022/12/05 08:21:32;;;;;;;;;;;8.00;70.00;;;3.03;100.00;95668.44;4991049;28;20276;-52
2022/12/05 08:24:05;;;;;;;;;;;8.10;70.00;;;3.05;100.00;95666.41;4992087;28;20279;-57
2022/12/05 08:26:32;;;;;;;;;;;8.10;70.10;;;3.09;100.00;95664.94;4991183;28;19909;-53
2022/12/05 08:29:11;;;;;;;;;;;8.10;70.00;;;3.11;100.00;95665.53;4975058;28;27951;-51
2022/12/05 08:31:46;;;;;;;;;;;8.10;70.00;;;3.07;100.00;95662.53;4986762;28;19917;-55
2022/12/05 08:34:13;;;;;;;;;;;8.10;69.90;;;3.08;100.00;95660.69;4972351;28;19913;-56
2022/12/05 08:36:40;;;;;;;;;;;8.20;69.90;;;3.11;100.00;95666.34;4988447;28;19945;-57
2022/12/05 08:39:14;;;;;;;;;;;8.20;69.80;;;3.14;100.00;95662.47;4970787;28;20291;-54
2022/12/05 08:41:42;;;;;;;;;;;8.20;69.80;;;3.13;99.53;95666.91;4966982;28;20448;-55
2022/12/05 08:44:09;;;;;;;;;;;8.30;69.70;;;3.18;99.34;95661.81;4972498;28;20300;-57
2022/12/05 08:46:37;;;;;;;;;;;8.30;69.60;;;3.25;98.59;95667.81;4960113;28;20324;-51
2022/12/05 08:49:04;;;;;;;;;;;8.40;69.60;;;3.28;98.73;95679.75;4970719;28;19917;-52
2022/12/05 08:51:31;;;;;;;;;;;8.40;69.60;;;3.29;99.26;95686.66;4970996;28;19909;-55
2022/12/05 08:53:57;;;;;;;;;;;8.40;69.50;;;3.33;100.00;95684.38;4961829;28;19999;-54
2022/12/05 08:56:24;;;;;;;;;;;8.50;69.50;;;3.33;100.00;95679.91;4964603;28;19964;-56
2022/12/05 08:58:49;;;;;;;;;;;8.50;69.40;;;3.39;99.89;95688.78;4967746;28;20047;-55
2022/12/05 09:01:21;;;;;;;;;;;8.60;69.40;;;3.45;100.00;95693.19;4971576;28;20323;-55
2022/12/05 09:03:48;;;;;;;;;;;8.60;69.30;;;3.45;99.01;95695.81;4954547;28;19913;-55
2022/12/05 09:06:21;;;;;;;;;;;8.70;69.20;;;3.52;99.23;95698.38;4971532;28;19910;-55
2022/12/05 09:08:59;;;;;;;;;;;8.70;69.10;;;3.56;98.62;95710.91;4985676;28;19910;-57
2022/12/05 09:11:32;;;;;;;;;;;8.80;69.10;;;3.60;98.81;95711.25;4985056;28;19956;-54
2022/12/05 09:14:00;;;;;;;;;;;8.80;69.10;;;3.61;97.45;95713.69;4951524;28;19917;-56
2022/12/05 09:16:34;;;;;;;;;;;8.80;69.10;;;3.65;98.12;95714.88;4984358;28;19932;-52
2022/12/05 09:19:00;;;;;;;;;;;8.80;69.10;;;3.69;97.21;95707.31;4971676;28;20283;-55
2022/12/05 09:21:30;;;;;;;;;;;8.80;69.10;;;3.67;95.67;95709.41;4964127;28;19913;-57
2022/12/05 09:24:00;;;;;;;;;;;8.90;69.10;;;3.75;95.98;95695.13;4987129;28;19921;-55
2022/12/05 09:26:28;;;;;;;;;;;8.90;69.00;;;3.80;95.20;95696.06;4986524;28;19910;-54
2022/12/05 09:28:57;;;;;;;;;;;9.00;68.90;;;3.82;94.43;95693.22;4971438;28;19913;-56
2022/12/05 09:31:29;;;;;;;;;;;9.10;68.80;;;3.88;94.66;95693.13;4964492;28;19952;-56
2022/12/05 09:33:55;;;;;;;;;;;9.20;68.70;;;3.93;95.11;95705.66;4978230;28;19990;-55
2022/12/05 09:36:44;;;;;;;;;;;9.20;68.60;;;3.98;94.78;95700.56;5010136;28;20364;-54
2022/12/05 09:39:10;;;;;;;;;;;9.40;68.50;;;4.05;94.80;95706.56;4998206;28;20153;-57
2022/12/05 09:42:17;;;;;;;;;;;9.50;68.60;;;4.16;95.05;95718.19;4989275;28;19910;-56
2022/12/05 09:45:24;;;;;;;;;;;9.60;68.50;;;4.24;94.58;95720.53;4999239;28;19921;-56
2022/12/05 09:47:55;;;;;;;;;;;9.70;68.40;;;4.24;92.46;95727.63;4992066;28;20322;-54
2022/12/05 09:50:28;;;;;;;;;;;9.70;68.10;;;4.21;92.80;95723.59;4999910;28;19912;-49
2022/12/05 09:53:10;;;;;;;;;;;9.80;68.00;;;4.30;93.21;95727.56;4978544;28;19978;-54
2022/12/05 09:56:11;;;;;;;;;;;9.70;67.80;;;4.26;92.27;95722.94;5009485;28;20000;-52
2022/12/05 09:58:40;;;;;;;;;;;9.70;67.80;;;4.26;93.29;95726.41;4994348;28;19913;-51
2022/12/05 10:02:10;;;;;;;;;;;9.70;67.80;;;4.23;92.19;95726.84;5010281;28;19944;-51
2022/12/05 10:05:08;;;;;;;;;;;9.70;67.80;;;4.23;90.20;95716.28;4943409;28;20381;-51
2022/12/05 10:07:39;;;;;;;;;;;9.60;67.70;;;4.18;90.87;95718.78;4975529;28;19912;-53
2022/12/05 10:10:35;;;;;;;;;;;9.60;67.50;;;4.31;90.72;95720.44;5008592;28;20011;-51
2022/12/05 10:13:20;;;;;;;;;;;9.60;67.50;;;4.32;89.36;95714.13;5000748;28;19913;-54
2022/12/05 10:15:56;;;;;;;;;;;9.70;67.60;;;4.38;90.47;95713.25;4993923;28;19909;-54
2022/12/05 10:18:40;;;;;;;;;;;9.70;67.50;;;4.38;90.36;95710.63;5006940;28;20435;-54
2022/12/05 10:21:08;;;;;;;;;;;9.70;67.40;;;4.43;89.41;95702.84;5005839;28;20275;-57
2022/12/05 10:24:02;;;;;;;;;;;9.80;67.40;;;4.43;89.49;95705.50;5004193;28;19956;-57
2022/12/05 10:26:45;;;;;;;;;;;9.90;67.30;;;4.43;88.48;95702.06;4990248;28;19916;-56
2022/12/05 10:29:48;;;;;;;;;;;9.90;67.10;;;4.53;89.07;95702.31;4967861;28;19948;-57
2022/12/05 10:32:51;;;;;;;;;;;9.90;67.00;;;4.59;88.09;95688.22;5013399;23;20015;-49
2022/12/05 10:35:37;;;;;;;;;;;10.00;66.90;;;4.66;87.76;95696.06;4997834;28;19920;-50
2022/12/05 10:38:31;;;;;;;;;;;10.20;66.90;;;4.72;87.48;95700.44;4994059;28;19913;-56
2022/12/05 10:41:07;;;;;;;;;;;10.30;66.80;;;4.77;86.85;95693.47;5018670;28;20389;-55
2022/12/05 10:43:36;;;;;;;;;;;10.30;66.60;;;4.79;87.01;95683.47;4985653;28;19967;-53
2022/12/05 10:46:04;;;;;;;;;;;10.40;66.50;;;4.81;86.44;95683.25;4987259;28;20299;-49
2022/12/05 10:48:36;;;;;;;;;;;10.40;66.40;;;4.74;86.37;95686.00;4994084;28;19984;-48
2022/12/05 10:51:03;;;;;;;;;;;10.40;66.30;;;4.79;86.98;95688.75;5004307;28;19924;-50
2022/12/05 10:53:35;;;;;;;;;;;10.40;66.20;;;4.76;85.84;95691.81;4984583;28;19913;-49
2022/12/05 10:56:01;;;;;;;;;;;10.40;66.20;;;4.77;86.07;95693.47;5007627;28;19909;-52
2022/12/05 10:58:29;;;;;;;;;;;10.40;66.10;;;4.82;85.57;95687.50;5008718;28;20318;-48
2022/12/05 11:01:08;;;;;;;;;;;10.30;66.00;;;4.75;84.99;95681.50;5005040;28;19917;-50
2022/12/05 11:03:39;;;;;;;;;;;10.40;65.90;;;4.83;85.18;95683.84;4989679;28;20055;-56
2022/12/05 11:06:23;;;;;;;;;;;10.30;65.80;;;4.87;85.49;95691.06;4991369;28;20375;-53
2022/12/05 11:09:17;;;;;;;;;;;10.30;65.80;;;4.87;85.01;95692.91;5004731;28;19909;-49
2022/12/05 11:12:03;;;;;;;;;;;10.30;65.80;;;4.85;84.61;95694.97;5001054;28;19923;-50
2022/12/05 11:14:32;;;;;;;;;;;10.30;65.70;;;4.89;84.31;95696.13;5005226;28;20016;-48
2022/12/05 11:17:04;;;;;;;;;;;10.30;65.80;;;4.87;84.28;95700.81;4990101;28;19959;-50
2022/12/05 11:19:37;;;;;;;;;;;10.30;65.80;;;4.87;84.59;95698.19;4992293;28;20419;-50
2022/12/05 11:22:06;;;;;;;;;;;10.20;65.70;;;4.86;86.04;95692.09;4971982;28;19909;-55
2022/12/05 11:24:38;;;;;;;;;;;10.20;65.70;;;4.90;85.55;95696.94;4996126;28;19921;-50
2022/12/05 11:27:19;;;;;;;;;;;10.20;65.80;;;4.89;84.34;95696.13;5010555;28;19962;-53
2022/12/05 11:30:11;;;;;;;;;;;10.20;65.80;;;4.84;84.05;95694.16;5007821;28;19909;-51
2022/12/05 11:32:38;;;;;;;;;;;10.10;65.80;;;4.82;83.84;95690.94;5006442;28;19952;-57
2022/12/05 11:35:12;;;;;;;;;;;10.10;65.60;;;4.85;83.74;95692.31;5010504;28;20367;-51
2022/12/05 11:38:06;;;;;;;;;;;10.10;65.70;;;4.80;83.32;95697.50;4999490;28;19913;-48
2022/12/05 11:40:53;;;;;;;;;;;10.10;65.50;;;4.77;83.33;95695.28;5013731;28;19962;-48
2022/12/05 11:44:03;;;;;;;;;;;10.10;65.40;;;4.71;84.62;95685.63;5011360;28;20311;-50
2022/12/05 11:46:50;;;;;;;;;;;10.10;65.40;;;4.71;84.27;95686.44;5007718;28;19920;-51
2022/12/05 11:49:40;;;;;;;;;;;10.00;65.40;;;4.69;84.58;95685.84;5012912;28;19909;-50
2022/12/05 11:52:33;;;;;;;;;;;10.00;65.40;;;4.75;84.92;95674.41;5013506;28;20115;-51
2022/12/05 11:55:17;;;;;;;;;;;10.10;65.40;;;4.78;84.14;95673.16;4997523;28;19913;-50
2022/12/05 11:58:10;;;;;;;;;;;10.20;65.20;;;4.90;84.34;95670.53;5013239;28;19921;-48
2022/12/05 12:01:06;;;;;;;;;;;10.30;65.80;;;5.07;84.67;95674.13;5012446;28;20430;-51
2022/12/05 12:04:17;;;;;;;;;;;10.40;65.00;;;5.18;83.55;95675.19;5001060;28;19913;-50
2022/12/05 12:07:21;;;;;;;;;;;10.60;65.00;;;5.19;82.98;95664.38;4979990;28;19909;-50
2022/12/05 12:10:12;;;;;;;;;;;10.70;64.80;;;5.27;83.36;95666.69;4992977;28;19909;-50
2022/12/05 12:13:07;;;;;;;;;;;10.80;64.70;;;5.33;83.17;95662.34;5012657;28;20066;-53
2022/12/05 12:15:51;;;;;;;;;;;10.90;64.60;;;5.33;83.57;95659.69;4978782;28;19913;-52
2022/12/05 12:19:09;;;;;;;;;;;11.00;64.50;;;5.44;83.60;95666.00;5012714;28;19913;-50
2022/12/05 12:22:10;;;;;;;;;;;11.00;64.30;;;5.47;83.40;95652.34;5003484;28;19941;-55